createdAt,value
2022-09-21T00:01:06.289Z,100.00
2022-09-21T00:03:34.102Z,100.00
2022-09-21T00:06:05.512Z,100.00
2022-09-21T00:08:33.208Z,100.00
2022-09-21T00:11:03.849Z,100.00
2022-09-21T00:13:33.347Z,100.00
2022-09-21T00:16:01.513Z,100.00
2022-09-21T00:18:29.092Z,100.00
2022-09-21T00:20:56.840Z,100.00
2022-09-21T00:23:24.776Z,100.00
2022-09-21T00:25:52.308Z,100.00
2022-09-21T00:28:21.256Z,100.00
2022-09-21T00:30:51.788Z,100.00
2022-09-21T00:33:19.297Z,100.00
2022-09-21T00:35:47.601Z,100.00
2022-09-21T00:38:15.178Z,100.00
2022-09-21T00:40:42.846Z,100.00
2022-09-21T00:43:14.738Z,100.00
2022-09-21T00:45:44.382Z,100.00
2022-09-21T00:48:12.097Z,100.00
2022-09-21T00:50:44.348Z,100.00
2022-09-21T00:53:12.002Z,100.00
2022-09-21T00:55:42.922Z,100.00
2022-09-21T00:58:15.109Z,100.00
2022-09-21T01:00:44.125Z,100.00
2022-09-21T01:03:13.537Z,100.00
2022-09-21T01:05:41.094Z,100.00
2022-09-21T01:08:12.515Z,100.00
2022-09-21T01:10:48.216Z,100.00
2022-09-21T01:13:21.450Z,100.00
2022-09-21T01:15:55.806Z,100.00
2022-09-21T01:18:31.544Z,100.00
2022-09-21T01:21:18.753Z,100.00
2022-09-21T01:24:09.137Z,100.00
2022-09-21T01:26:51.398Z,100.00
2022-09-21T01:29:25.700Z,100.00
2022-09-21T01:31:58.854Z,100.00
2022-09-21T01:34:30.610Z,100.00
2022-09-21T01:37:00.245Z,100.00
2022-09-21T01:39:28.764Z,100.00
2022-09-21T01:41:57.433Z,100.00
2022-09-21T01:44:30.310Z,100.00
2022-09-21T01:46:58.716Z,100.00
2022-09-21T01:49:30.486Z,100.00
2022-09-21T01:52:01.470Z,100.00
2022-09-21T01:54:31.867Z,100.00
2022-09-21T01:57:03.844Z,100.00
2022-09-21T01:59:37.477Z,100.00
2022-09-21T02:02:09.854Z,100.00
2022-09-21T02:04:38.851Z,100.00
2022-09-21T02:07:07.751Z,100.00
2022-09-21T02:09:36.722Z,100.00
2022-09-21T02:12:04.868Z,100.00
2022-09-21T02:14:34.321Z,100.00
2022-09-21T02:17:07.650Z,100.00
2022-09-21T02:19:41.638Z,100.00
2022-09-21T02:22:13.191Z,100.00
2022-09-21T02:24:43.854Z,100.00
2022-09-21T02:27:20.379Z,100.00
2022-09-21T02:29:52.940Z,100.00
2022-09-21T02:32:26.656Z,100.00
2022-09-21T02:34:56.697Z,100.00
2022-09-21T02:37:27.259Z,100.00
2022-09-21T02:39:59.584Z,100.00
2022-09-21T02:42:29.582Z,100.00
2022-09-21T02:45:01.228Z,100.00
2022-09-21T02:47:32.419Z,100.00
2022-09-21T02:50:04.174Z,100.00
2022-09-21T02:52:32.754Z,100.00
2022-09-21T02:55:01.316Z,100.00
2022-09-21T02:57:28.926Z,100.00
2022-09-21T02:59:57.842Z,100.00
2022-09-21T03:02:25.346Z,100.00
2022-09-21T03:04:54.072Z,100.00
2022-09-21T03:07:21.570Z,100.00
2022-09-21T03:09:49.094Z,100.00
2022-09-21T03:12:16.585Z,100.00
2022-09-21T03:14:44.254Z,100.00
2022-09-21T03:17:13.099Z,100.00
2022-09-21T03:19:40.632Z,100.00
2022-09-21T03:22:08.166Z,100.00
2022-09-21T03:24:47.849Z,100.00
2022-09-21T03:27:15.912Z,100.00
2022-09-21T03:29:43.610Z,100.00
2022-09-21T03:32:13.201Z,100.00
2022-09-21T03:34:40.865Z,100.00
2022-09-21T03:37:10.366Z,100.00
2022-09-21T03:39:37.938Z,100.00
2022-09-21T03:42:05.739Z,100.00
2022-09-21T03:44:33.303Z,100.00
2022-09-21T03:47:00.821Z,100.00
2022-09-21T03:49:29.736Z,100.00
2022-09-21T03:51:58.248Z,100.00
2022-09-21T03:54:26.352Z,100.00
2022-09-21T03:56:53.870Z,100.00
2022-09-21T03:59:21.512Z,100.00
2022-09-21T04:01:49.053Z,100.00
2022-09-21T04:04:16.869Z,100.00
2022-09-21T04:06:46.146Z,100.00
2022-09-21T04:09:13.755Z,100.00
2022-09-21T04:11:41.270Z,100.00
2022-09-21T04:14:08.853Z,100.00
2022-09-21T04:16:36.383Z,100.00
2022-09-21T04:19:03.894Z,100.00
2022-09-21T04:21:31.534Z,100.00
2022-09-21T04:24:01.899Z,100.00
2022-09-21T04:26:31.511Z,100.00
2022-09-21T04:28:59.542Z,100.00
2022-09-21T04:31:27.801Z,100.00
2022-09-21T04:33:57.094Z,100.00
2022-09-21T04:36:26.396Z,100.00
2022-09-21T04:38:53.961Z,100.00
2022-09-21T04:41:22.856Z,100.00
2022-09-21T04:43:50.409Z,100.00
2022-09-21T04:46:19.953Z,100.00
2022-09-21T04:48:48.212Z,100.00
2022-09-21T04:51:16.904Z,100.00
2022-09-21T04:53:45.805Z,100.00
2022-09-21T04:56:15.347Z,100.00
2022-09-21T04:58:44.927Z,100.00
2022-09-21T05:01:12.905Z,100.00
2022-09-21T05:03:40.603Z,100.00
2022-09-21T05:06:09.435Z,100.00
2022-09-21T05:08:54.473Z,100.00
2022-09-21T05:11:22.759Z,100.00
2022-09-21T05:13:52.119Z,100.00
2022-09-21T05:16:20.216Z,100.00
2022-09-21T05:18:47.784Z,100.00
2022-09-21T05:21:15.959Z,100.00
2022-09-21T05:23:43.516Z,100.00
2022-09-21T05:26:11.046Z,100.00
2022-09-21T05:28:40.295Z,100.00
2022-09-21T05:31:18.432Z,100.00
2022-09-21T05:33:53.078Z,100.00
2022-09-21T05:36:45.581Z,100.00
2022-09-21T05:39:13.669Z,100.00
2022-09-21T05:41:41.773Z,100.00
2022-09-21T05:44:11.538Z,100.00
2022-09-21T05:46:42.006Z,100.00
2022-09-21T05:49:16.567Z,100.00
2022-09-21T05:51:50.942Z,100.00
2022-09-21T05:54:23.231Z,100.00
2022-09-21T05:56:54.093Z,100.00
2022-09-21T05:59:41.284Z,100.00
2022-09-21T06:02:18.798Z,100.00
2022-09-21T06:04:49.464Z,100.00
2022-09-21T06:07:16.996Z,100.00
2022-09-21T06:09:44.565Z,100.00
2022-09-21T06:12:12.178Z,100.00
2022-09-21T06:14:39.784Z,100.00
2022-09-21T06:17:07.397Z,100.00
2022-09-21T06:19:36.337Z,100.00
2022-09-21T06:22:03.901Z,100.00
2022-09-21T06:24:31.529Z,100.00
2022-09-21T06:26:59.171Z,100.00
2022-09-21T06:29:26.713Z,100.00
2022-09-21T06:31:54.245Z,100.00
2022-09-21T06:34:21.799Z,100.00
2022-09-21T06:36:50.630Z,100.00
2022-09-21T06:39:18.163Z,100.00
2022-09-21T06:41:45.688Z,100.00
2022-09-21T06:44:13.244Z,100.00
2022-09-21T06:46:40.796Z,100.00
2022-09-21T06:49:08.313Z,100.00
2022-09-21T06:51:36.297Z,100.00
2022-09-21T06:54:05.417Z,100.00
2022-09-21T06:56:33.112Z,100.00
2022-09-21T06:59:00.870Z,100.00
2022-09-21T07:01:28.660Z,100.00
2022-09-21T07:03:56.337Z,100.00
2022-09-21T07:06:24.065Z,100.00
2022-09-21T07:11:44.256Z,100.00
2022-09-21T07:14:11.768Z,100.00
2022-09-21T07:16:39.905Z,100.00
2022-09-21T07:19:11.521Z,100.00
2022-09-21T07:21:39.390Z,100.00
2022-09-21T07:24:11.871Z,100.00
2022-09-21T07:26:40.341Z,100.00
2022-09-21T07:29:09.410Z,100.00
2022-09-21T07:31:37.044Z,100.00
2022-09-21T07:34:04.666Z,100.00
2022-09-21T07:36:32.470Z,100.00
2022-09-21T07:39:00.034Z,100.00
2022-09-21T07:41:27.736Z,100.00
2022-09-21T07:43:55.588Z,100.00
2022-09-21T07:46:25.018Z,100.00
2022-09-21T07:48:54.502Z,100.00
2022-09-21T07:51:22.142Z,100.00
2022-09-21T07:53:49.697Z,100.00
2022-09-21T07:56:18.986Z,100.00
2022-09-21T07:59:04.367Z,100.00
2022-09-21T08:01:33.993Z,100.00
2022-09-21T08:04:02.128Z,100.00
2022-09-21T08:06:32.903Z,100.00
2022-09-21T08:09:08.652Z,100.00
2022-09-21T08:11:46.302Z,100.00
2022-09-21T08:14:23.653Z,100.00
2022-09-21T08:16:54.934Z,100.00
2022-09-21T08:19:25.791Z,100.00
2022-09-21T08:21:57.145Z,100.00
2022-09-21T08:24:26.823Z,100.00
2022-09-21T08:26:55.581Z,100.00
2022-09-21T08:29:23.088Z,99.45
2022-09-21T08:31:50.733Z,98.96
2022-09-21T08:34:19.697Z,98.86
2022-09-21T08:36:50.648Z,98.95
2022-09-21T08:39:20.637Z,98.77
2022-09-21T08:41:54.920Z,97.34
2022-09-21T08:44:25.331Z,96.96
2022-09-21T08:47:03.643Z,96.61
2022-09-21T08:49:35.020Z,98.30
2022-09-21T08:52:05.350Z,97.25
2022-09-21T08:54:36.467Z,96.30
2022-09-21T08:57:05.676Z,96.97
2022-09-21T08:59:34.617Z,97.81
2022-09-21T09:02:15.655Z,96.33
2022-09-21T09:04:52.456Z,94.36
2022-09-21T09:07:29.263Z,94.11
2022-09-21T09:10:05.012Z,96.09
2022-09-21T09:12:44.024Z,95.88
2022-09-21T09:15:20.928Z,95.92
2022-09-21T09:17:54.747Z,95.24
2022-09-21T09:20:28.859Z,92.58
2022-09-21T09:23:04.066Z,92.70
2022-09-21T09:25:37.034Z,93.57
2022-09-21T09:28:15.460Z,92.35
2022-09-21T09:30:43.400Z,92.82
2022-09-21T09:33:15.568Z,91.79
2022-09-21T09:35:47.879Z,91.59
2022-09-21T09:38:20.995Z,90.63
2022-09-21T09:41:00.556Z,92.34
2022-09-21T09:43:38.405Z,90.57
2022-09-21T09:46:13.566Z,89.58
2022-09-21T09:48:54.205Z,88.80
2022-09-21T09:51:23.608Z,88.27
2022-09-21T09:54:00.435Z,87.03
2022-09-21T09:56:28.442Z,86.56
2022-09-21T09:58:58.493Z,87.42
2022-09-21T10:01:42.469Z,87.76
2022-09-21T10:04:12.010Z,84.54
2022-09-21T10:06:45.989Z,85.17
2022-09-21T10:09:20.610Z,83.56
2022-09-21T10:11:48.962Z,81.95
2022-09-21T10:14:20.331Z,81.46
2022-09-21T10:16:51.557Z,79.77
2022-09-21T10:19:22.870Z,79.24
2022-09-21T10:21:55.661Z,81.04
2022-09-21T10:24:25.027Z,78.35
2022-09-21T10:26:56.067Z,78.55
2022-09-21T10:29:33.037Z,77.47
2022-09-21T10:32:02.248Z,78.46
2022-09-21T10:34:31.316Z,76.69
2022-09-21T10:37:02.033Z,76.45
2022-09-21T10:39:30.697Z,77.20
2022-09-21T10:42:01.424Z,76.75
2022-09-21T10:44:37.301Z,75.63
2022-09-21T10:47:17.058Z,74.91
2022-09-21T10:49:46.264Z,73.46
2022-09-21T10:52:15.210Z,75.50
2022-09-21T10:54:43.579Z,72.56
2022-09-21T10:57:16.205Z,73.24
2022-09-21T10:59:44.504Z,73.43
2022-09-21T11:02:43.369Z,74.77
2022-09-21T11:05:15.615Z,75.30
2022-09-21T11:07:49.163Z,73.23
2022-09-21T11:10:22.356Z,74.19
2022-09-21T11:13:01.685Z,73.90
2022-09-21T11:15:38.955Z,73.87
2022-09-21T11:18:11.414Z,73.28
2022-09-21T11:20:43.529Z,72.26
2022-09-21T11:23:24.540Z,71.54
2022-09-21T11:25:57.827Z,72.53
2022-09-21T11:28:28.597Z,70.54
2022-09-21T11:31:09.193Z,71.89
2022-09-21T11:33:47.345Z,71.87
2022-09-21T11:36:18.715Z,69.62
2022-09-21T11:38:55.511Z,68.64
2022-09-21T11:41:37.414Z,69.60
2022-09-21T11:44:19.010Z,69.36
2022-09-21T11:46:52.422Z,68.98
2022-09-21T11:49:32.274Z,67.39
2022-09-21T11:52:12.033Z,67.74
2022-09-21T11:54:51.818Z,68.07
2022-09-21T11:57:24.222Z,67.91
2022-09-21T12:00:11.557Z,67.36
2022-09-21T12:03:23.178Z,67.21
2022-09-21T12:06:03.381Z,65.44
2022-09-21T12:08:52.461Z,65.20
2022-09-21T12:11:30.257Z,65.90
2022-09-21T12:14:03.139Z,66.33
2022-09-21T12:16:37.531Z,64.45
2022-09-21T12:19:10.043Z,65.47
2022-09-21T12:21:41.013Z,63.73
2022-09-21T12:24:15.367Z,63.67
2022-09-21T12:26:46.288Z,63.48
2022-09-21T12:29:20.889Z,60.29
2022-09-21T12:32:03.328Z,61.22
2022-09-21T12:34:34.488Z,61.21
2022-09-21T12:37:07.964Z,61.61
2022-09-21T12:39:40.539Z,60.83
2022-09-21T12:42:22.755Z,62.04
2022-09-21T12:44:54.128Z,61.23
2022-09-21T12:47:27.176Z,60.90
2022-09-21T12:49:58.237Z,61.46
2022-09-21T12:52:27.560Z,61.01
2022-09-21T12:55:00.224Z,60.07
2022-09-21T12:57:59.088Z,58.68
2022-09-21T13:00:36.183Z,58.28
2022-09-21T13:03:10.516Z,58.81
2022-09-21T13:05:44.731Z,60.44
2022-09-21T13:08:13.290Z,60.01
2022-09-21T13:10:51.793Z,59.27
2022-09-21T13:13:32.941Z,57.30
2022-09-21T13:16:01.326Z,58.38
2022-09-21T13:18:36.233Z,60.17
2022-09-21T13:21:17.022Z,58.29
2022-09-21T13:23:44.752Z,58.21
2022-09-21T13:26:13.473Z,60.64
2022-09-21T13:29:06.635Z,59.30
2022-09-21T13:31:43.967Z,58.86
2022-09-21T13:34:27.394Z,58.26
2022-09-21T13:37:35.104Z,58.92
2022-09-21T13:40:40.064Z,57.64
2022-09-21T13:43:23.175Z,55.36
2022-09-21T13:45:55.736Z,54.99
2022-09-21T13:48:29.479Z,55.44
2022-09-21T13:50:58.879Z,54.81
2022-09-21T13:53:30.650Z,55.74
2022-09-21T13:56:03.230Z,57.00
2022-09-21T13:58:32.748Z,56.52
2022-09-21T14:01:04.321Z,56.37
2022-09-21T14:03:37.181Z,55.59
2022-09-21T14:06:08.541Z,57.74
2022-09-21T14:08:38.503Z,56.50
2022-09-21T14:11:09.256Z,56.91
2022-09-21T14:13:38.677Z,56.20
2022-09-21T14:16:45.786Z,56.39
2022-09-21T14:19:51.053Z,56.23
2022-09-21T14:22:39.913Z,56.16
2022-09-21T14:25:28.395Z,56.30
2022-09-21T14:28:01.116Z,54.14
2022-09-21T14:30:30.882Z,54.98
2022-09-21T14:33:09.487Z,55.08
2022-09-21T14:35:39.108Z,55.61
2022-09-21T14:38:15.913Z,55.75
2022-09-21T14:40:48.419Z,57.03
2022-09-21T14:43:20.623Z,56.87
2022-09-21T14:45:58.100Z,57.72
2022-09-21T14:48:30.476Z,56.25
2022-09-21T14:51:02.765Z,56.77
2022-09-21T14:53:41.782Z,55.46
2022-09-21T14:56:22.363Z,56.36
2022-09-21T14:58:58.869Z,56.63
2022-09-21T15:01:37.700Z,55.93
2022-09-21T15:04:31.693Z,54.46
2022-09-21T15:07:34.141Z,53.78
2022-09-21T15:10:34.774Z,54.01
2022-09-21T15:13:11.549Z,54.67
2022-09-21T15:15:43.606Z,55.07
2022-09-21T15:18:20.386Z,55.03
2022-09-21T15:21:00.099Z,54.71
2022-09-21T15:23:29.163Z,54.32
2022-09-21T15:26:02.528Z,54.32
2022-09-21T15:28:58.054Z,54.33
2022-09-21T15:31:24.150Z,55.12
2022-09-21T15:33:53.265Z,55.38
2022-09-21T15:36:22.790Z,54.97
2022-09-21T15:38:51.494Z,56.01
2022-09-21T15:41:44.941Z,56.77
2022-09-21T15:44:17.186Z,57.60
2022-09-21T15:46:50.363Z,57.29
2022-09-21T15:49:22.036Z,56.93
2022-09-21T15:51:53.208Z,57.11
2022-09-21T15:54:32.180Z,56.89
2022-09-21T15:57:07.911Z,57.10
2022-09-21T15:59:35.939Z,57.20
2022-09-21T16:02:12.213Z,57.02
2022-09-21T16:04:49.256Z,57.89
2022-09-21T16:07:26.864Z,57.62
2022-09-21T16:09:57.513Z,57.71
2022-09-21T16:12:38.730Z,57.72
2022-09-21T16:15:17.273Z,58.46
2022-09-21T16:18:01.367Z,58.35
2022-09-21T16:20:47.323Z,59.00
2022-09-21T16:23:17.526Z,59.78
2022-09-21T16:25:45.322Z,60.47
2022-09-21T16:28:35.633Z,59.62
2022-09-21T16:31:23.373Z,60.27
2022-09-21T16:34:02.217Z,60.46
2022-09-21T16:36:42.853Z,61.41
2022-09-21T16:39:16.424Z,62.59
2022-09-21T16:42:02.571Z,63.05
2022-09-21T16:44:40.105Z,62.62
2022-09-21T16:47:13.984Z,63.17
2022-09-21T16:49:41.507Z,64.50
2022-09-21T16:52:09.313Z,64.04
2022-09-21T16:54:37.400Z,64.97
2022-09-21T16:57:07.609Z,64.62
2022-09-21T16:59:36.584Z,64.76
2022-09-21T17:02:05.883Z,65.33
2022-09-21T17:04:35.458Z,65.64
2022-09-21T17:07:04.917Z,65.87
2022-09-21T17:09:35.279Z,66.07
2022-09-21T17:12:03.976Z,66.39
2022-09-21T17:14:34.936Z,66.96
2022-09-21T17:17:08.333Z,67.27
2022-09-21T17:19:36.820Z,67.47
2022-09-21T17:22:06.712Z,68.26
2022-09-21T17:24:49.919Z,68.94
2022-09-21T17:27:19.900Z,69.33
2022-09-21T17:29:48.221Z,69.92
2022-09-21T17:32:20.077Z,70.27
2022-09-21T17:34:50.037Z,71.13
2022-09-21T17:37:17.737Z,71.47
2022-09-21T17:39:45.680Z,71.62
2022-09-21T17:42:18.681Z,71.39
2022-09-21T17:45:01.692Z,71.29
2022-09-21T17:47:33.239Z,71.42
2022-09-21T17:50:07.401Z,71.70
2022-09-21T17:52:52.964Z,71.31
2022-09-21T17:55:21.074Z,71.59
2022-09-21T17:57:59.123Z,71.24
2022-09-21T18:00:32.756Z,71.95
2022-09-21T18:03:02.785Z,73.15
2022-09-21T18:05:31.602Z,72.06
2022-09-21T18:07:59.943Z,72.50
2022-09-21T18:10:29.493Z,72.54
2022-09-21T18:13:23.146Z,73.32
2022-09-21T18:16:03.414Z,73.61
2022-09-21T18:18:45.556Z,74.02
2022-09-21T18:21:18.025Z,75.34
2022-09-21T18:24:00.919Z,75.12
2022-09-21T18:26:28.894Z,74.94
2022-09-21T18:28:58.129Z,75.17
2022-09-21T18:31:44.917Z,75.40
2022-09-21T18:34:42.252Z,75.53
2022-09-21T18:37:16.108Z,75.85
2022-09-21T18:39:51.437Z,76.30
2022-09-21T18:42:30.091Z,76.30
2022-09-21T18:45:02.247Z,76.42
2022-09-21T18:47:36.419Z,76.96
2022-09-21T18:50:15.905Z,77.15
2022-09-21T18:52:55.917Z,76.80
2022-09-21T18:55:28.637Z,76.36
2022-09-21T18:57:57.144Z,75.79
2022-09-21T19:00:30.936Z,76.64
2022-09-21T19:03:18.459Z,76.28
2022-09-21T19:05:54.871Z,76.22
2022-09-21T19:08:28.737Z,75.91
2022-09-21T19:11:02.928Z,76.13
2022-09-21T19:13:42.466Z,76.39
2022-09-21T19:16:18.193Z,76.18
2022-09-21T19:18:53.886Z,76.08
2022-09-21T19:21:33.074Z,76.00
2022-09-21T19:24:07.755Z,75.90
2022-09-21T19:26:42.570Z,76.14
2022-09-21T19:29:31.206Z,76.65
2022-09-21T19:31:59.013Z,76.66
2022-09-21T19:34:28.025Z,76.52
2022-09-21T19:36:57.210Z,76.48
2022-09-21T19:39:25.344Z,76.63
2022-09-21T19:42:00.522Z,76.78
2022-09-21T19:44:39.347Z,77.26
2022-09-21T19:47:14.186Z,77.56
2022-09-21T19:49:48.370Z,76.93
2022-09-21T19:52:19.033Z,76.70
2022-09-21T19:55:04.787Z,76.64
2022-09-21T19:57:51.774Z,76.39
2022-09-21T20:00:35.887Z,76.62
2022-09-21T20:03:05.821Z,76.06
2022-09-21T20:05:45.646Z,76.36
2022-09-21T20:08:21.557Z,76.20
2022-09-21T20:10:56.491Z,76.55
2022-09-21T20:13:31.251Z,76.55
2022-09-21T20:16:23.669Z,76.55
2022-09-21T20:19:25.372Z,76.97
2022-09-21T20:22:20.026Z,77.40
2022-09-21T20:24:55.255Z,76.65
2022-09-21T20:27:32.437Z,76.60
2022-09-21T20:29:59.976Z,76.99
2022-09-21T20:32:27.522Z,76.84
2022-09-21T20:34:55.059Z,76.56
2022-09-21T20:37:23.646Z,77.29
2022-09-21T20:39:53.508Z,78.02
2022-09-21T20:42:27.865Z,77.72
2022-09-21T20:44:56.738Z,77.43
2022-09-21T20:47:27.484Z,77.08
2022-09-21T20:49:55.007Z,76.74
2022-09-21T20:52:23.082Z,76.38
2022-09-21T20:54:52.242Z,76.47
2022-09-21T20:57:21.996Z,76.74
2022-09-21T20:59:49.758Z,76.73
2022-09-21T21:02:18.427Z,77.17
2022-09-21T21:04:52.045Z,76.62
2022-09-21T21:07:20.375Z,76.25
2022-09-21T21:09:48.084Z,76.48
2022-09-21T21:12:17.689Z,76.66
2022-09-21T21:14:45.879Z,77.02
2022-09-21T21:17:20.692Z,76.61
2022-09-21T21:19:48.423Z,77.05
2022-09-21T21:22:15.945Z,77.12
2022-09-21T21:24:44.066Z,76.74
2022-09-21T21:27:16.365Z,77.02
2022-09-21T21:29:46.581Z,76.99
2022-09-21T21:32:14.397Z,77.13
2022-09-21T21:34:42.114Z,77.37
2022-09-21T21:37:09.805Z,77.55
2022-09-21T21:39:37.318Z,77.66
2022-09-21T21:42:05.243Z,77.87
2022-09-21T21:44:32.862Z,77.62
2022-09-21T21:47:15.377Z,77.31
2022-09-21T21:49:48.975Z,77.69
2022-09-21T21:52:16.491Z,77.65
2022-09-21T21:54:44.034Z,78.07
2022-09-21T21:57:12.106Z,78.34
2022-09-21T21:59:39.678Z,78.65
2022-09-21T22:02:08.833Z,78.74
2022-09-21T22:04:36.482Z,79.18
2022-09-21T22:07:04.034Z,79.40
2022-09-21T22:09:31.566Z,80.09
2022-09-21T22:12:01.200Z,80.57
2022-09-21T22:14:28.810Z,80.87
2022-09-21T22:16:58.872Z,81.08
2022-09-21T22:19:27.852Z,81.47
2022-09-21T22:21:55.421Z,80.92
2022-09-21T22:24:24.948Z,80.08
2022-09-21T22:26:52.491Z,80.13
2022-09-21T22:29:20.155Z,81.16
2022-09-21T22:31:49.308Z,81.54
2022-09-21T22:34:17.390Z,81.50
2022-09-21T22:36:46.250Z,81.20
2022-09-21T22:39:13.970Z,81.01
2022-09-21T22:41:42.831Z,81.30
2022-09-21T22:44:11.068Z,81.56
2022-09-21T22:46:38.925Z,81.65
2022-09-21T22:49:06.908Z,81.68
2022-09-21T22:51:34.950Z,81.81
2022-09-21T22:54:03.861Z,82.19
2022-09-21T22:56:32.911Z,82.55
2022-09-21T22:59:01.812Z,82.82
2022-09-21T23:01:31.360Z,83.13
2022-09-21T23:04:00.739Z,82.60
2022-09-21T23:06:31.718Z,82.60
2022-09-21T23:08:59.681Z,82.64
2022-09-21T23:11:30.908Z,82.70
2022-09-21T23:13:59.438Z,83.10
2022-09-21T23:16:28.883Z,83.22
2022-09-21T23:18:57.699Z,83.72
2022-09-21T23:21:26.685Z,84.07
2022-09-21T23:23:55.944Z,84.72
2022-09-21T23:26:25.995Z,85.07
2022-09-21T23:28:56.255Z,84.86
2022-09-21T23:31:26.594Z,85.21
2022-09-21T23:33:56.058Z,85.50
2022-09-21T23:36:25.179Z,85.70
2022-09-21T23:38:52.928Z,86.33
2022-09-21T23:41:21.910Z,86.56
2022-09-21T23:43:50.521Z,86.16
2022-09-21T23:46:21.259Z,86.56
2022-09-21T23:48:49.361Z,86.85
2022-09-21T23:51:17.517Z,87.12
2022-09-21T23:53:45.472Z,87.22
2022-09-21T23:56:16.345Z,87.94
2022-09-21T23:58:44.110Z,88.34
